sensor_id;sensor_type;location;lat;lon;timestamp;pressure;altitude;pressure_sealevel;temperature;humidity
33795;BME280;51430;52.242;21.118;2022-09-09T00:04:31;100108.64;;;11.96;100.00
33795;BME280;51430;52.242;21.118;2022-09-09T00:09:50;100102.59;;;11.95;100.00
33795;BME280;51430;52.242;21.118;2022-09-09T00:12:34;100099.01;;;11.90;100.00
33795;BME280;51430;52.242;21.118;2022-09-09T00:15:11;100097.92;;;11.89;100.00
33795;BME280;51430;52.242;21.118;2022-09-09T00:18:07;100095.00;;;11.88;100.00
33795;BME280;51430;52.242;21.118;2022-09-09T00:20:48;100091.79;;;11.83;100.00
33795;BME280;51430;52.242;21.118;2022-09-09T00:23:28;100091.70;;;11.80;100.00
33795;BME280;51430;52.242;21.118;2022-09-09T00:26:19;100087.64;;;11.80;100.00
33795;BME280;51430;52.242;21.118;2022-09-09T00:31:28;100092.89;;;11.80;100.00
33795;BME280;51430;52.242;21.118;2022-09-09T00:34:09;100090.54;;;11.81;100.00
33795;BME280;51430;52.242;21.118;2022-09-09T00:36:41;100082.76;;;11.80;100.00
33795;BME280;51430;52.242;21.118;2022-09-09T00:44:38;100075.23;;;11.70;100.00
33795;BME280;51430;52.242;21.118;2022-09-09T00:50:06;100073.02;;;11.75;100.00
33795;BME280;51430;52.242;21.118;2022-09-09T00:52:56;100076.45;;;11.74;100.00
33795;BME280;51430;52.242;21.118;2022-09-09T00:56:29;100078.73;;;11.70;100.00
33795;BME280;51430;52.242;21.118;2022-09-09T00:58:37;100073.52;;;11.72;100.00
33795;BME280;51430;52.242;21.118;2022-09-09T01:01:09;100070.48;;;11.72;100.00
33795;BME280;51430;52.242;21.118;2022-09-09T01:03:52;100068.15;;;11.71;100.00
33795;BME280;51430;52.242;21.118;2022-09-09T01:09:38;100065.92;;;11.70;100.00
33795;BME280;51430;52.242;21.118;2022-09-09T01:12:16;100069.35;;;11.67;100.00
33795;BME280;51430;52.242;21.118;2022-09-09T01:14:51;100074.05;;;11.69;100.00
33795;BME280;51430;52.242;21.118;2022-09-09T01:17:31;100075.72;;;11.74;100.00
33795;BME280;51430;52.242;21.118;2022-09-09T01:20:14;100075.00;;;11.72;100.00
33795;BME280;51430;52.242;21.118;2022-09-09T01:26:24;100068.66;;;11.73;100.00
33795;BME280;51430;52.242;21.118;2022-09-09T01:28:54;100066.52;;;11.74;100.00
33795;BME280;51430;52.242;21.118;2022-09-09T01:31:32;100066.08;;;11.75;100.00
33795;BME280;51430;52.242;21.118;2022-09-09T01:34:14;100063.33;;;11.75;100.00
33795;BME280;51430;52.242;21.118;2022-09-09T01:36:44;100054.99;;;11.74;100.00
33795;BME280;51430;52.242;21.118;2022-09-09T01:39:14;100055.91;;;11.73;100.00
33795;BME280;51430;52.242;21.118;2022-09-09T01:41:42;100057.46;;;11.73;100.00
33795;BME280;51430;52.242;21.118;2022-09-09T01:44:11;100050.38;;;11.71;100.00
33795;BME280;51430;52.242;21.118;2022-09-09T01:46:39;100054.52;;;11.69;100.00
33795;BME280;51430;52.242;21.118;2022-09-09T01:49:08;100059.42;;;11.67;100.00
33795;BME280;51430;52.242;21.118;2022-09-09T01:51:39;100057.30;;;11.67;100.00
33795;BME280;51430;52.242;21.118;2022-09-09T01:54:10;100056.56;;;11.69;100.00
33795;BME280;51430;52.242;21.118;2022-09-09T01:56:44;100049.25;;;11.69;100.00
33795;BME280;51430;52.242;21.118;2022-09-09T02:01:57;100054.77;;;11.72;100.00
33795;BME280;51430;52.242;21.118;2022-09-09T02:07:51;100051.45;;;11.72;100.00
33795;BME280;51430;52.242;21.118;2022-09-09T02:10:39;100059.60;;;11.71;100.00
33795;BME280;51430;52.242;21.118;2022-09-09T02:13:15;100058.88;;;11.73;100.00
33795;BME280;51430;52.242;21.118;2022-09-09T02:18:46;100055.27;;;11.73;100.00
33795;BME280;51430;52.242;21.118;2022-09-09T02:21:17;100051.94;;;11.75;100.00
33795;BME280;51430;52.242;21.118;2022-09-09T02:23:47;100049.92;;;11.80;100.00
33795;BME280;51430;52.242;21.118;2022-09-09T02:26:21;100052.28;;;11.79;100.00
33795;BME280;51430;52.242;21.118;2022-09-09T02:28:56;100050.33;;;11.80;100.00
33795;BME280;51430;52.242;21.118;2022-09-09T02:31:26;100053.03;;;11.81;100.00
33795;BME280;51430;52.242;21.118;2022-09-09T02:33:58;100049.25;;;11.78;100.00
33795;BME280;51430;52.242;21.118;2022-09-09T02:36:31;100049.11;;;11.79;100.00
33795;BME280;51430;52.242;21.118;2022-09-09T02:39:02;100052.83;;;11.79;100.00
33795;BME280;51430;52.242;21.118;2022-09-09T02:41:35;100055.71;;;11.82;100.00
33795;BME280;51430;52.242;21.118;2022-09-09T02:44:13;100053.67;;;11.81;100.00
33795;BME280;51430;52.242;21.118;2022-09-09T02:55:45;100055.36;;;11.82;100.00
33795;BME280;51430;52.242;21.118;2022-09-09T02:58:17;100053.94;;;11.84;100.00
33795;BME280;51430;52.242;21.118;2022-09-09T03:00:47;100056.01;;;11.84;100.00
33795;BME280;51430;52.242;21.118;2022-09-09T03:03:17;100057.77;;;11.84;100.00
33795;BME280;51430;52.242;21.118;2022-09-09T03:05:46;100060.02;;;11.87;100.00
33795;BME280;51430;52.242;21.118;2022-09-09T03:08:14;100062.80;;;11.91;100.00
33795;BME280;51430;52.242;21.118;2022-09-09T03:10:43;100063.77;;;11.92;100.00
33795;BME280;51430;52.242;21.118;2022-09-09T03:13:11;100064.58;;;11.95;100.00
33795;BME280;51430;52.242;21.118;2022-09-09T03:15:41;100063.93;;;11.98;100.00
33795;BME280;51430;52.242;21.118;2022-09-09T03:18:09;100065.28;;;11.96;100.00
33795;BME280;51430;52.242;21.118;2022-09-09T03:20:38;100057.88;;;11.95;100.00
33795;BME280;51430;52.242;21.118;2022-09-09T03:23:06;100057.27;;;11.94;100.00
33795;BME280;51430;52.242;21.118;2022-09-09T03:25:39;100051.64;;;11.93;100.00
33795;BME280;51430;52.242;21.118;2022-09-09T03:28:07;100047.88;;;11.93;100.00
33795;BME280;51430;52.242;21.118;2022-09-09T03:30:35;100045.86;;;11.93;100.00
33795;BME280;51430;52.242;21.118;2022-09-09T03:33:03;100044.30;;;11.88;100.00
33795;BME280;51430;52.242;21.118;2022-09-09T03:35:31;100044.94;;;11.89;100.00
33795;BME280;51430;52.242;21.118;2022-09-09T03:37:59;100041.42;;;11.90;100.00
33795;BME280;51430;52.242;21.118;2022-09-09T03:40:28;100036.56;;;11.89;100.00
33795;BME280;51430;52.242;21.118;2022-09-09T03:42:56;100030.55;;;11.90;100.00
33795;BME280;51430;52.242;21.118;2022-09-09T03:45:25;100032.38;;;11.93;100.00
33795;BME280;51430;52.242;21.118;2022-09-09T03:47:53;100036.77;;;11.93;100.00
33795;BME280;51430;52.242;21.118;2022-09-09T03:50:22;100036.26;;;11.95;100.00
33795;BME280;51430;52.242;21.118;2022-09-09T03:52:51;100036.38;;;11.97;100.00
33795;BME280;51430;52.242;21.118;2022-09-09T03:55:19;100038.80;;;11.96;100.00
33795;BME280;51430;52.242;21.118;2022-09-09T03:57:47;100044.46;;;11.99;100.00
33795;BME280;51430;52.242;21.118;2022-09-09T04:00:15;100047.17;;;12.00;100.00
33795;BME280;51430;52.242;21.118;2022-09-09T04:02:43;100048.02;;;12.00;100.00
33795;BME280;51430;52.242;21.118;2022-09-09T04:05:11;100048.39;;;12.00;100.00
33795;BME280;51430;52.242;21.118;2022-09-09T04:07:40;100051.50;;;12.00;100.00
33795;BME280;51430;52.242;21.118;2022-09-09T04:10:08;100049.20;;;11.97;100.00
33795;BME280;51430;52.242;21.118;2022-09-09T04:12:36;100050.58;;;11.96;100.00
33795;BME280;51430;52.242;21.118;2022-09-09T04:15:04;100049.75;;;11.98;100.00
33795;BME280;51430;52.242;21.118;2022-09-09T04:17:33;100048.86;;;12.00;100.00
33795;BME280;51430;52.242;21.118;2022-09-09T04:20:01;100050.79;;;12.00;100.00
33795;BME280;51430;52.242;21.118;2022-09-09T04:22:30;100045.80;;;12.01;100.00
33795;BME280;51430;52.242;21.118;2022-09-09T04:24:59;100046.64;;;12.02;100.00
33795;BME280;51430;52.242;21.118;2022-09-09T04:27:28;100050.77;;;12.02;100.00
33795;BME280;51430;52.242;21.118;2022-09-09T04:29:56;100050.19;;;12.05;100.00
33795;BME280;51430;52.242;21.118;2022-09-09T04:32:27;100047.96;;;12.07;100.00
33795;BME280;51430;52.242;21.118;2022-09-09T04:34:55;100046.83;;;12.07;100.00
33795;BME280;51430;52.242;21.118;2022-09-09T04:37:23;100042.95;;;12.06;100.00
33795;BME280;51430;52.242;21.118;2022-09-09T04:39:52;100045.52;;;12.07;100.00
33795;BME280;51430;52.242;21.118;2022-09-09T04:42:21;100040.75;;;12.07;100.00
33795;BME280;51430;52.242;21.118;2022-09-09T04:44:49;100048.29;;;12.09;100.00
33795;BME280;51430;52.242;21.118;2022-09-09T04:47:17;100047.25;;;12.09;100.00
33795;BME280;51430;52.242;21.118;2022-09-09T04:49:45;100050.53;;;12.11;100.00
33795;BME280;51430;52.242;21.118;2022-09-09T04:52:13;100049.36;;;12.13;100.00
33795;BME280;51430;52.242;21.118;2022-09-09T04:54:45;100052.50;;;12.15;100.00
33795;BME280;51430;52.242;21.118;2022-09-09T04:57:13;100061.76;;;12.17;100.00
33795;BME280;51430;52.242;21.118;2022-09-09T04:59:45;100060.75;;;12.16;100.00
33795;BME280;51430;52.242;21.118;2022-09-09T05:02:13;100065.00;;;12.17;100.00
33795;BME280;51430;52.242;21.118;2022-09-09T05:04:43;100066.01;;;12.18;100.00
33795;BME280;51430;52.242;21.118;2022-09-09T05:07:11;100064.02;;;12.21;100.00
33795;BME280;51430;52.242;21.118;2022-09-09T05:09:39;100064.02;;;12.27;100.00
33795;BME280;51430;52.242;21.118;2022-09-09T05:12:08;100066.60;;;12.29;100.00
33795;BME280;51430;52.242;21.118;2022-09-09T05:14:36;100069.34;;;12.28;100.00
33795;BME280;51430;52.242;21.118;2022-09-09T05:17:04;100075.28;;;12.28;100.00
33795;BME280;51430;52.242;21.118;2022-09-09T05:19:33;100077.41;;;12.31;100.00
33795;BME280;51430;52.242;21.118;2022-09-09T05:22:01;100074.91;;;12.34;100.00
33795;BME280;51430;52.242;21.118;2022-09-09T05:24:29;100072.10;;;12.34;100.00
33795;BME280;51430;52.242;21.118;2022-09-09T05:27:01;100070.63;;;12.35;100.00
33795;BME280;51430;52.242;21.118;2022-09-09T05:29:30;100072.23;;;12.34;100.00
33795;BME280;51430;52.242;21.118;2022-09-09T05:32:01;100071.96;;;12.36;100.00
33795;BME280;51430;52.242;21.118;2022-09-09T05:34:29;100074.65;;;12.39;100.00
33795;BME280;51430;52.242;21.118;2022-09-09T05:36:57;100076.44;;;12.36;100.00
33795;BME280;51430;52.242;21.118;2022-09-09T05:39:26;100082.17;;;12.35;100.00
33795;BME280;51430;52.242;21.118;2022-09-09T05:41:54;100082.77;;;12.38;100.00
33795;BME280;51430;52.242;21.118;2022-09-09T05:44:23;100079.20;;;12.37;100.00
33795;BME280;51430;52.242;21.118;2022-09-09T05:46:55;100075.52;;;12.35;100.00
33795;BME280;51430;52.242;21.118;2022-09-09T05:49:24;100074.39;;;12.36;100.00
33795;BME280;51430;52.242;21.118;2022-09-09T05:51:53;100076.30;;;12.36;100.00
33795;BME280;51430;52.242;21.118;2022-09-09T05:54:21;100076.67;;;12.38;100.00
33795;BME280;51430;52.242;21.118;2022-09-09T05:56:49;100076.53;;;12.39;100.00
33795;BME280;51430;52.242;21.118;2022-09-09T05:59:19;100077.03;;;12.40;100.00
33795;BME280;51430;52.242;21.118;2022-09-09T06:01:48;100078.80;;;12.43;100.00
33795;BME280;51430;52.242;21.118;2022-09-09T06:04:16;100079.49;;;12.51;100.00
33795;BME280;51430;52.242;21.118;2022-09-09T06:06:45;100079.58;;;12.54;100.00
33795;BME280;51430;52.242;21.118;2022-09-09T06:09:13;100084.15;;;12.58;100.00
33795;BME280;51430;52.242;21.118;2022-09-09T06:11:42;100089.02;;;12.54;100.00
33795;BME280;51430;52.242;21.118;2022-09-09T06:14:12;100089.66;;;12.53;100.00
33795;BME280;51430;52.242;21.118;2022-09-09T06:16:40;100090.53;;;12.59;100.00
33795;BME280;51430;52.242;21.118;2022-09-09T06:19:11;100095.20;;;12.59;100.00
33795;BME280;51430;52.242;21.118;2022-09-09T06:21:40;100093.73;;;12.62;100.00
33795;BME280;51430;52.242;21.118;2022-09-09T06:24:10;100092.96;;;12.63;100.00
33795;BME280;51430;52.242;21.118;2022-09-09T06:26:41;100095.45;;;12.60;100.00
33795;BME280;51430;52.242;21.118;2022-09-09T06:29:10;100098.54;;;12.63;100.00
33795;BME280;51430;52.242;21.118;2022-09-09T06:31:38;100099.74;;;12.65;100.00
33795;BME280;51430;52.242;21.118;2022-09-09T06:34:08;100102.70;;;12.65;100.00
33795;BME280;51430;52.242;21.118;2022-09-09T06:36:38;100103.83;;;12.65;100.00
33795;BME280;51430;52.242;21.118;2022-09-09T06:39:07;100105.61;;;12.62;100.00
33795;BME280;51430;52.242;21.118;2022-09-09T06:41:41;100106.36;;;12.63;100.00
33795;BME280;51430;52.242;21.118;2022-09-09T06:44:10;100106.56;;;12.65;100.00
33795;BME280;51430;52.242;21.118;2022-09-09T06:46:43;100106.48;;;12.70;100.00
33795;BME280;51430;52.242;21.118;2022-09-09T06:49:12;100102.76;;;12.70;100.00
33795;BME280;51430;52.242;21.118;2022-09-09T06:51:40;100109.64;;;12.74;100.00
33795;BME280;51430;52.242;21.118;2022-09-09T06:54:11;100108.44;;;12.78;100.00
33795;BME280;51430;52.242;21.118;2022-09-09T06:56:41;100108.30;;;12.79;100.00
33795;BME280;51430;52.242;21.118;2022-09-09T06:59:11;100114.61;;;12.81;100.00
33795;BME280;51430;52.242;21.118;2022-09-09T07:01:42;100116.73;;;12.82;100.00
33795;BME280;51430;52.242;21.118;2022-09-09T07:04:20;100118.44;;;12.79;100.00
33795;BME280;51430;52.242;21.118;2022-09-09T07:06:48;100117.84;;;12.82;100.00
33795;BME280;51430;52.242;21.118;2022-09-09T07:09:16;100120.38;;;12.81;100.00
33795;BME280;51430;52.242;21.118;2022-09-09T07:11:49;100119.18;;;12.78;100.00
33795;BME280;51430;52.242;21.118;2022-09-09T07:14:21;100119.14;;;12.85;100.00
33795;BME280;51430;52.242;21.118;2022-09-09T07:16:50;100119.61;;;12.89;100.00
33795;BME280;51430;52.242;21.118;2022-09-09T07:19:18;100120.02;;;12.93;100.00
33795;BME280;51430;52.242;21.118;2022-09-09T07:21:46;100127.10;;;12.97;100.00
33795;BME280;51430;52.242;21.118;2022-09-09T07:24:14;100131.91;;;13.03;100.00
33795;BME280;51430;52.242;21.118;2022-09-09T07:26:43;100134.31;;;13.01;100.00
33795;BME280;51430;52.242;21.118;2022-09-09T07:29:12;100136.52;;;13.04;100.00
33795;BME280;51430;52.242;21.118;2022-09-09T07:31:47;100138.48;;;12.99;100.00
33795;BME280;51430;52.242;21.118;2022-09-09T07:34:16;100138.96;;;12.96;100.00
33795;BME280;51430;52.242;21.118;2022-09-09T07:36:44;100141.07;;;12.98;100.00
33795;BME280;51430;52.242;21.118;2022-09-09T07:39:14;100141.90;;;13.02;100.00
33795;BME280;51430;52.242;21.118;2022-09-09T07:41:47;100141.69;;;13.09;100.00
33795;BME280;51430;52.242;21.118;2022-09-09T07:44:20;100141.98;;;13.13;100.00
33795;BME280;51430;52.242;21.118;2022-09-09T07:46:49;100146.55;;;13.13;100.00
33795;BME280;51430;52.242;21.118;2022-09-09T07:49:18;100148.52;;;13.12;100.00
33795;BME280;51430;52.242;21.118;2022-09-09T07:51:55;100146.07;;;13.10;100.00
33795;BME280;51430;52.242;21.118;2022-09-09T07:54:23;100149.29;;;13.06;100.00
33795;BME280;51430;52.242;21.118;2022-09-09T07:56:52;100150.33;;;13.08;100.00
33795;BME280;51430;52.242;21.118;2022-09-09T07:59:20;100154.00;;;13.14;100.00
33795;BME280;51430;52.242;21.118;2022-09-09T08:01:50;100157.73;;;13.17;100.00
33795;BME280;51430;52.242;21.118;2022-09-09T08:04:22;100161.02;;;13.19;100.00
33795;BME280;51430;52.242;21.118;2022-09-09T08:06:57;100165.20;;;13.23;100.00
33795;BME280;51430;52.242;21.118;2022-09-09T08:09:26;100170.19;;;13.26;100.00
33795;BME280;51430;52.242;21.118;2022-09-09T08:11:57;100164.14;;;13.29;100.00
33795;BME280;51430;52.242;21.118;2022-09-09T08:14:26;100166.90;;;13.33;100.00
33795;BME280;51430;52.242;21.118;2022-09-09T08:16:54;100170.52;;;13.38;100.00
33795;BME280;51430;52.242;21.118;2022-09-09T08:19:24;100175.57;;;13.38;100.00
33795;BME280;51430;52.242;21.118;2022-09-09T08:21:52;100174.73;;;13.34;100.00
33795;BME280;51430;52.242;21.118;2022-09-09T08:24:22;100174.78;;;13.33;100.00
33795;BME280;51430;52.242;21.118;2022-09-09T08:26:51;100180.20;;;13.37;100.00
33795;BME280;51430;52.242;21.118;2022-09-09T08:29:19;100180.20;;;13.39;100.00
33795;BME280;51430;52.242;21.118;2022-09-09T08:31:56;100182.86;;;13.37;100.00
33795;BME280;51430;52.242;21.118;2022-09-09T08:34:33;100181.80;;;13.39;100.00
33795;BME280;51430;52.242;21.118;2022-09-09T08:37:08;100183.84;;;13.38;100.00
33795;BME280;51430;52.242;21.118;2022-09-09T08:39:36;100185.40;;;13.36;100.00
33795;BME280;51430;52.242;21.118;2022-09-09T08:42:25;100185.71;;;13.41;100.00
33795;BME280;51430;52.242;21.118;2022-09-09T08:45:26;100189.16;;;13.35;100.00
33795;BME280;51430;52.242;21.118;2022-09-09T08:50:55;100189.50;;;13.43;100.00
33795;BME280;51430;52.242;21.118;2022-09-09T08:53:38;100194.62;;;13.46;100.00
33795;BME280;51430;52.242;21.118;2022-09-09T08:56:13;100198.54;;;13.49;100.00
33795;BME280;51430;52.242;21.118;2022-09-09T08:58:49;100196.96;;;13.57;100.00
33795;BME280;51430;52.242;21.118;2022-09-09T09:07:32;100191.10;;;13.62;100.00
33795;BME280;51430;52.242;21.118;2022-09-09T09:13:11;100195.83;;;13.72;100.00
33795;BME280;51430;52.242;21.118;2022-09-09T09:15:47;100201.19;;;13.72;100.00
33795;BME280;51430;52.242;21.118;2022-09-09T09:18:17;100201.34;;;13.65;100.00
33795;BME280;51430;52.242;21.118;2022-09-09T09:21:05;100206.34;;;13.66;100.00
33795;BME280;51430;52.242;21.118;2022-09-09T09:24:02;100213.45;;;13.69;100.00
33795;BME280;51430;52.242;21.118;2022-09-09T09:26:34;100218.98;;;13.69;100.00
33795;BME280;51430;52.242;21.118;2022-09-09T09:29:14;100217.69;;;13.74;100.00
33795;BME280;51430;52.242;21.118;2022-09-09T09:32:07;100216.96;;;13.72;100.00
33795;BME280;51430;52.242;21.118;2022-09-09T09:34:40;100217.52;;;13.72;100.00
33795;BME280;51430;52.242;21.118;2022-09-09T09:37:16;100218.17;;;13.71;100.00
33795;BME280;51430;52.242;21.118;2022-09-09T09:39:48;100221.66;;;13.67;100.00
33795;BME280;51430;52.242;21.118;2022-09-09T09:42:32;100219.45;;;13.70;100.00
33795;BME280;51430;52.242;21.118;2022-09-09T09:47:59;100226.11;;;13.70;100.00
33795;BME280;51430;52.242;21.118;2022-09-09T09:50:34;100230.69;;;13.66;100.00
33795;BME280;51430;52.242;21.118;2022-09-09T09:53:04;100230.15;;;13.70;100.00
33795;BME280;51430;52.242;21.118;2022-09-09T09:55:35;100226.42;;;13.74;100.00
33795;BME280;51430;52.242;21.118;2022-09-09T09:58:05;100219.45;;;13.72;100.00
33795;BME280;51430;52.242;21.118;2022-09-09T10:00:34;100227.19;;;13.81;100.00
33795;BME280;51430;52.242;21.118;2022-09-09T10:03:22;100223.60;;;13.89;100.00
33795;BME280;51430;52.242;21.118;2022-09-09T10:05:51;100226.99;;;13.91;100.00
33795;BME280;51430;52.242;21.118;2022-09-09T10:08:20;100227.11;;;13.95;100.00
33795;BME280;51430;52.242;21.118;2022-09-09T10:11:06;100224.74;;;13.96;100.00
33795;BME280;51430;52.242;21.118;2022-09-09T10:16:45;100222.39;;;14.15;100.00
33795;BME280;51430;52.242;21.118;2022-09-09T10:19:26;100222.48;;;14.30;100.00
33795;BME280;51430;52.242;21.118;2022-09-09T10:30:15;100242.70;;;14.28;100.00
33795;BME280;51430;52.242;21.118;2022-09-09T10:35:44;100245.09;;;14.32;100.00
33795;BME280;51430;52.242;21.118;2022-09-09T10:38:39;100246.83;;;14.36;100.00
33795;BME280;51430;52.242;21.118;2022-09-09T10:47:09;100264.45;;;14.33;100.00
33795;BME280;51430;52.242;21.118;2022-09-09T10:55:20;100282.67;;;14.39;100.00
33795;BME280;51430;52.242;21.118;2022-09-09T10:57:58;100286.61;;;14.40;100.00
33795;BME280;51430;52.242;21.118;2022-09-09T11:03:20;100290.59;;;14.25;100.00
33795;BME280;51430;52.242;21.118;2022-09-09T11:05:55;100293.48;;;14.22;100.00
33795;BME280;51430;52.242;21.118;2022-09-09T11:08:28;100295.00;;;14.23;100.00
33795;BME280;51430;52.242;21.118;2022-09-09T11:18:38;100300.11;;;14.36;100.00
33795;BME280;51430;52.242;21.118;2022-09-09T11:21:52;100302.36;;;14.36;100.00
33795;BME280;51430;52.242;21.118;2022-09-09T11:24:18;100305.45;;;14.41;100.00
33795;BME280;51430;52.242;21.118;2022-09-09T11:27:10;100302.81;;;14.45;100.00
33795;BME280;51430;52.242;21.118;2022-09-09T11:38:44;100310.46;;;14.60;100.00
33795;BME280;51430;52.242;21.118;2022-09-09T11:41:14;100310.61;;;14.61;100.00
33795;BME280;51430;52.242;21.118;2022-09-09T11:43:52;100313.90;;;14.63;100.00
33795;BME280;51430;52.242;21.118;2022-09-09T11:46:33;100311.20;;;14.66;100.00
33795;BME280;51430;52.242;21.118;2022-09-09T11:49:06;100309.94;;;14.64;100.00
33795;BME280;51430;52.242;21.118;2022-09-09T11:51:35;100309.11;;;14.56;100.00
33795;BME280;51430;52.242;21.118;2022-09-09T11:54:30;100309.73;;;14.64;100.00
33795;BME280;51430;52.242;21.118;2022-09-09T11:56:59;100304.34;;;14.71;100.00
33795;BME280;51430;52.242;21.118;2022-09-09T11:59:30;100309.45;;;14.67;100.00
33795;BME280;51430;52.242;21.118;2022-09-09T12:02:08;100306.80;;;14.73;100.00
33795;BME280;51430;52.242;21.118;2022-09-09T12:04:56;100305.48;;;14.78;100.00
33795;BME280;51430;52.242;21.118;2022-09-09T12:07:37;100305.70;;;14.74;100.00
33795;BME280;51430;52.242;21.118;2022-09-09T12:10:30;100311.23;;;14.73;100.00
33795;BME280;51430;52.242;21.118;2022-09-09T12:13:17;100314.56;;;14.75;100.00
33795;BME280;51430;52.242;21.118;2022-09-09T12:15:51;100309.41;;;14.77;100.00
33795;BME280;51430;52.242;21.118;2022-09-09T12:18:41;100308.03;;;14.77;100.00
33795;BME280;51430;52.242;21.118;2022-09-09T12:21:34;100315.57;;;14.77;100.00
33795;BME280;51430;52.242;21.118;2022-09-09T12:24:11;100318.61;;;14.78;100.00
33795;BME280;51430;52.242;21.118;2022-09-09T12:29:40;100323.78;;;14.64;100.00
33795;BME280;51430;52.242;21.118;2022-09-09T12:32:23;100317.99;;;14.60;100.00
33795;BME280;51430;52.242;21.118;2022-09-09T12:34:59;100321.94;;;14.58;100.00
33795;BME280;51430;52.242;21.118;2022-09-09T12:40:05;100324.67;;;14.60;100.00
33795;BME280;51430;52.242;21.118;2022-09-09T12:42:39;100328.75;;;14.60;100.00
33795;BME280;51430;52.242;21.118;2022-09-09T12:45:20;100326.67;;;14.62;100.00
33795;BME280;51430;52.242;21.118;2022-09-09T12:47:56;100323.56;;;14.65;100.00
33795;BME280;51430;52.242;21.118;2022-09-09T12:50:31;100322.52;;;14.68;100.00
33795;BME280;51430;52.242;21.118;2022-09-09T12:53:26;100318.52;;;14.74;100.00
33795;BME280;51430;52.242;21.118;2022-09-09T12:56:02;100311.45;;;14.76;100.00
33795;BME280;51430;52.242;21.118;2022-09-09T12:58:31;100304.29;;;14.77;100.00
33795;BME280;51430;52.242;21.118;2022-09-09T13:01:04;100297.70;;;14.86;100.00
33795;BME280;51430;52.242;21.118;2022-09-09T13:03:42;100300.34;;;14.89;100.00
33795;BME280;51430;52.242;21.118;2022-09-09T13:06:23;100302.21;;;14.88;100.00
33795;BME280;51430;52.242;21.118;2022-09-09T13:08:58;100309.51;;;14.81;100.00
33795;BME280;51430;52.242;21.118;2022-09-09T13:11:34;100308.75;;;14.78;100.00
33795;BME280;51430;52.242;21.118;2022-09-09T13:14:05;100308.48;;;14.85;100.00
33795;BME280;51430;52.242;21.118;2022-09-09T13:16:35;100310.63;;;14.90;100.00
33795;BME280;51430;52.242;21.118;2022-09-09T13:19:14;100308.45;;;14.92;100.00
33795;BME280;51430;52.242;21.118;2022-09-09T13:21:44;100307.38;;;14.96;100.00
33795;BME280;51430;52.242;21.118;2022-09-09T13:27:30;100294.96;;;14.92;100.00
33795;BME280;51430;52.242;21.118;2022-09-09T13:29:58;100296.23;;;14.94;100.00
33795;BME280;51430;52.242;21.118;2022-09-09T13:32:28;100301.19;;;14.91;100.00
33795;BME280;51430;52.242;21.118;2022-09-09T13:34:59;100304.48;;;14.79;100.00
33795;BME280;51430;52.242;21.118;2022-09-09T13:37:38;100300.60;;;14.70;100.00
33795;BME280;51430;52.242;21.118;2022-09-09T13:40:20;100299.05;;;14.71;100.00
33795;BME280;51430;52.242;21.118;2022-09-09T13:42:55;100292.47;;;14.74;100.00
33795;BME280;51430;52.242;21.118;2022-09-09T13:45:25;100290.78;;;14.79;100.00
33795;BME280;51430;52.242;21.118;2022-09-09T13:47:55;100291.48;;;14.86;100.00
33795;BME280;51430;52.242;21.118;2022-09-09T13:52:58;100294.73;;;14.84;100.00
33795;BME280;51430;52.242;21.118;2022-09-09T13:55:27;100302.27;;;14.84;100.00
33795;BME280;51430;52.242;21.118;2022-09-09T13:57:59;100301.00;;;14.82;100.00
33795;BME280;51430;52.242;21.118;2022-09-09T14:00:34;100304.58;;;14.82;100.00
33795;BME280;51430;52.242;21.118;2022-09-09T14:03:03;100311.05;;;14.78;100.00
33795;BME280;51430;52.242;21.118;2022-09-09T14:05:33;100310.59;;;14.74;100.00
33795;BME280;51430;52.242;21.118;2022-09-09T14:08:06;100312.88;;;14.72;100.00
33795;BME280;51430;52.242;21.118;2022-09-09T14:10:35;100311.61;;;14.67;100.00
33795;BME280;51430;52.242;21.118;2022-09-09T14:13:04;100313.34;;;14.65;100.00
33795;BME280;51430;52.242;21.118;2022-09-09T14:15:32;100315.59;;;14.64;100.00
33795;BME280;51430;52.242;21.118;2022-09-09T14:18:01;100320.23;;;14.63;100.00
33795;BME280;51430;52.242;21.118;2022-09-09T14:20:30;100324.42;;;14.63;100.00
33795;BME280;51430;52.242;21.118;2022-09-09T14:22:58;100327.41;;;14.61;100.00
33795;BME280;51430;52.242;21.118;2022-09-09T14:25:30;100327.88;;;14.62;100.00
33795;BME280;51430;52.242;21.118;2022-09-09T14:27:59;100323.00;;;14.67;100.00
33795;BME280;51430;52.242;21.118;2022-09-09T14:30:28;100321.73;;;14.71;100.00
33795;BME280;51430;52.242;21.118;2022-09-09T14:32:56;100322.90;;;14.74;100.00
33795;BME280;51430;52.242;21.118;2022-09-09T14:35:24;100323.39;;;14.74;100.00
33795;BME280;51430;52.242;21.118;2022-09-09T14:37:53;100329.41;;;14.79;100.00
33795;BME280;51430;52.242;21.118;2022-09-09T14:40:21;100330.20;;;14.85;100.00
33795;BME280;51430;52.242;21.118;2022-09-09T14:42:49;100330.95;;;14.90;100.00
33795;BME280;51430;52.242;21.118;2022-09-09T14:45:17;100326.16;;;14.95;100.00
33795;BME280;51430;52.242;21.118;2022-09-09T14:47:45;100320.38;;;14.98;100.00
33795;BME280;51430;52.242;21.118;2022-09-09T14:50:13;100311.96;;;15.01;100.00
33795;BME280;51430;52.242;21.118;2022-09-09T14:52:42;100310.49;;;15.08;100.00